sensor_id;sensor_type;location;lat;lon;timestamp;temperature;humidity
26589;DHT22;14235;48.532;8.722;2023-08-20T00:01:46;21.10;99.90
26589;DHT22;14235;48.532;8.722;2023-08-20T00:04:12;21.10;99.90
26589;DHT22;14235;48.532;8.722;2023-08-20T00:06:39;21.20;99.90
26589;DHT22;14235;48.532;8.722;2023-08-20T00:09:05;21.10;99.90
26589;DHT22;14235;48.532;8.722;2023-08-20T00:11:33;21.10;99.90
26589;DHT22;14235;48.532;8.722;2023-08-20T00:13:58;21.10;99.90
26589;DHT22;14235;48.532;8.722;2023-08-20T00:16:24;21.00;99.90
26589;DHT22;14235;48.532;8.722;2023-08-20T00:18:50;21.00;99.90
26589;DHT22;14235;48.532;8.722;2023-08-20T00:21:16;20.90;99.90
26589;DHT22;14235;48.532;8.722;2023-08-20T00:23:42;21.00;99.90
26589;DHT22;14235;48.532;8.722;2023-08-20T00:26:08;21.00;99.90
26589;DHT22;14235;48.532;8.722;2023-08-20T00:28:35;21.00;99.90
26589;DHT22;14235;48.532;8.722;2023-08-20T00:33:31;20.90;99.90
26589;DHT22;14235;48.532;8.722;2023-08-20T00:35:56;21.00;99.90
26589;DHT22;14235;48.532;8.722;2023-08-20T00:38:22;21.00;99.90
26589;DHT22;14235;48.532;8.722;2023-08-20T00:40:48;20.90;99.90
26589;DHT22;14235;48.532;8.722;2023-08-20T00:43:14;20.90;99.90
26589;DHT22;14235;48.532;8.722;2023-08-20T00:45:43;20.80;99.90
26589;DHT22;14235;48.532;8.722;2023-08-20T00:48:09;20.90;99.90
26589;DHT22;14235;48.532;8.722;2023-08-20T00:50:35;20.70;99.90
26589;DHT22;14235;48.532;8.722;2023-08-20T00:53:01;20.70;99.90
26589;DHT22;14235;48.532;8.722;2023-08-20T00:55:28;20.70;99.90
26589;DHT22;14235;48.532;8.722;2023-08-20T00:57:54;20.70;99.90
26589;DHT22;14235;48.532;8.722;2023-08-20T01:00:20;20.80;99.90
26589;DHT22;14235;48.532;8.722;2023-08-20T01:02:48;20.70;99.90
26589;DHT22;14235;48.532;8.722;2023-08-20T01:08:10;20.50;99.90
26589;DHT22;14235;48.532;8.722;2023-08-20T01:10:56;20.60;99.90
26589;DHT22;14235;48.532;8.722;2023-08-20T01:13:23;20.60;99.90
26589;DHT22;14235;48.532;8.722;2023-08-20T01:15:48;20.50;99.90
26589;DHT22;14235;48.532;8.722;2023-08-20T01:18:14;20.50;99.90
26589;DHT22;14235;48.532;8.722;2023-08-20T01:20:45;20.50;99.90
26589;DHT22;14235;48.532;8.722;2023-08-20T01:23:36;20.50;99.90
26589;DHT22;14235;48.532;8.722;2023-08-20T01:28:42;20.40;99.90
26589;DHT22;14235;48.532;8.722;2023-08-20T01:31:09;20.50;99.90
26589;DHT22;14235;48.532;8.722;2023-08-20T01:33:35;20.40;99.90
26589;DHT22;14235;48.532;8.722;2023-08-20T01:36:01;20.40;99.90
26589;DHT22;14235;48.532;8.722;2023-08-20T01:43:19;20.40;99.90
26589;DHT22;14235;48.532;8.722;2023-08-20T01:45:45;20.30;99.90
26589;DHT22;14235;48.532;8.722;2023-08-20T01:48:11;20.40;99.90
26589;DHT22;14235;48.532;8.722;2023-08-20T01:50:37;20.30;99.90
26589;DHT22;14235;48.532;8.722;2023-08-20T01:53:03;20.20;99.90
26589;DHT22;14235;48.532;8.722;2023-08-20T01:55:28;20.10;99.90
26589;DHT22;14235;48.532;8.722;2023-08-20T01:57:54;20.20;99.90
26589;DHT22;14235;48.532;8.722;2023-08-20T02:00:20;20.20;99.90
26589;DHT22;14235;48.532;8.722;2023-08-20T02:02:45;20.20;99.90
26589;DHT22;14235;48.532;8.722;2023-08-20T02:05:11;20.20;99.90
26589;DHT22;14235;48.532;8.722;2023-08-20T02:07:37;20.20;99.90
26589;DHT22;14235;48.532;8.722;2023-08-20T02:10:03;20.10;99.90
26589;DHT22;14235;48.532;8.722;2023-08-20T02:14:55;20.10;99.90
26589;DHT22;14235;48.532;8.722;2023-08-20T02:17:21;20.00;99.90
26589;DHT22;14235;48.532;8.722;2023-08-20T02:22:13;20.00;99.90
26589;DHT22;14235;48.532;8.722;2023-08-20T02:27:05;20.40;99.90
26589;DHT22;14235;48.532;8.722;2023-08-20T02:29:30;19.90;99.90
26589;DHT22;14235;48.532;8.722;2023-08-20T02:31:56;19.90;99.90
26589;DHT22;14235;48.532;8.722;2023-08-20T02:34:22;20.00;99.90
26589;DHT22;14235;48.532;8.722;2023-08-20T02:36:48;19.90;99.90
26589;DHT22;14235;48.532;8.722;2023-08-20T02:39:14;19.90;99.90
26589;DHT22;14235;48.532;8.722;2023-08-20T02:41:40;19.80;99.90
26589;DHT22;14235;48.532;8.722;2023-08-20T02:44:06;19.80;99.90
26589;DHT22;14235;48.532;8.722;2023-08-20T02:46:32;19.70;99.90
26589;DHT22;14235;48.532;8.722;2023-08-20T02:48:58;19.70;99.90
26589;DHT22;14235;48.532;8.722;2023-08-20T02:51:24;19.60;99.90
26589;DHT22;14235;48.532;8.722;2023-08-20T02:53:49;19.70;99.90
26589;DHT22;14235;48.532;8.722;2023-08-20T02:56:15;19.60;99.90
26589;DHT22;14235;48.532;8.722;2023-08-20T02:58:41;19.80;99.90
26589;DHT22;14235;48.532;8.722;2023-08-20T03:01:06;19.70;99.90
26589;DHT22;14235;48.532;8.722;2023-08-20T03:03:32;19.70;99.90
26589;DHT22;14235;48.532;8.722;2023-08-20T03:05:58;19.80;99.90
26589;DHT22;14235;48.532;8.722;2023-08-20T03:08:24;19.70;99.90
26589;DHT22;14235;48.532;8.722;2023-08-20T03:10:49;19.80;99.90
26589;DHT22;14235;48.532;8.722;2023-08-20T03:13:15;19.60;99.90
26589;DHT22;14235;48.532;8.722;2023-08-20T03:15:41;19.70;99.90
26589;DHT22;14235;48.532;8.722;2023-08-20T03:18:06;19.60;99.90
26589;DHT22;14235;48.532;8.722;2023-08-20T03:20:32;19.60;99.90
26589;DHT22;14235;48.532;8.722;2023-08-20T03:22:58;19.60;99.90
26589;DHT22;14235;48.532;8.722;2023-08-20T03:25:24;19.60;99.90
26589;DHT22;14235;48.532;8.722;2023-08-20T03:27:51;19.50;99.90
26589;DHT22;14235;48.532;8.722;2023-08-20T03:30:17;19.60;99.90
26589;DHT22;14235;48.532;8.722;2023-08-20T03:32:43;19.40;99.90
26589;DHT22;14235;48.532;8.722;2023-08-20T03:35:09;19.40;99.90
26589;DHT22;14235;48.532;8.722;2023-08-20T03:37:34;19.40;99.90
26589;DHT22;14235;48.532;8.722;2023-08-20T03:40:00;19.30;99.90
26589;DHT22;14235;48.532;8.722;2023-08-20T03:42:26;19.40;99.90
26589;DHT22;14235;48.532;8.722;2023-08-20T03:44:52;19.30;99.90
26589;DHT22;14235;48.532;8.722;2023-08-20T03:47:17;19.30;99.90
26589;DHT22;14235;48.532;8.722;2023-08-20T03:49:47;19.20;99.90
26589;DHT22;14235;48.532;8.722;2023-08-20T03:52:15;19.40;99.90
26589;DHT22;14235;48.532;8.722;2023-08-20T03:54:41;19.30;99.90
26589;DHT22;14235;48.532;8.722;2023-08-20T03:57:07;19.30;99.90
26589;DHT22;14235;48.532;8.722;2023-08-20T03:59:33;19.30;99.90
26589;DHT22;14235;48.532;8.722;2023-08-20T04:01:58;19.30;99.90
26589;DHT22;14235;48.532;8.722;2023-08-20T04:04:24;19.20;99.90
26589;DHT22;14235;48.532;8.722;2023-08-20T04:06:51;19.30;99.90
26589;DHT22;14235;48.532;8.722;2023-08-20T04:09:16;19.20;99.90
26589;DHT22;14235;48.532;8.722;2023-08-20T04:11:42;19.30;99.90
26589;DHT22;14235;48.532;8.722;2023-08-20T04:14:08;19.10;99.90
26589;DHT22;14235;48.532;8.722;2023-08-20T04:16:34;19.30;99.90
26589;DHT22;14235;48.532;8.722;2023-08-20T04:18:59;19.20;99.90
26589;DHT22;14235;48.532;8.722;2023-08-20T04:21:27;19.10;99.90
26589;DHT22;14235;48.532;8.722;2023-08-20T04:23:53;19.00;99.90
26589;DHT22;14235;48.532;8.722;2023-08-20T04:26:19;19.20;99.90
26589;DHT22;14235;48.532;8.722;2023-08-20T04:28:45;19.10;99.90
26589;DHT22;14235;48.532;8.722;2023-08-20T04:33:36;19.00;99.90
26589;DHT22;14235;48.532;8.722;2023-08-20T04:36:02;19.00;99.90
26589;DHT22;14235;48.532;8.722;2023-08-20T04:38:28;19.00;99.90
26589;DHT22;14235;48.532;8.722;2023-08-20T04:40:54;19.10;99.90
26589;DHT22;14235;48.532;8.722;2023-08-20T04:43:19;19.00;99.90
26589;DHT22;14235;48.532;8.722;2023-08-20T04:45:45;19.00;99.90
26589;DHT22;14235;48.532;8.722;2023-08-20T04:48:11;19.00;99.90
26589;DHT22;14235;48.532;8.722;2023-08-20T04:50:36;18.90;99.90
26589;DHT22;14235;48.532;8.722;2023-08-20T04:53:02;19.00;99.90
26589;DHT22;14235;48.532;8.722;2023-08-20T04:55:28;19.00;99.90
26589;DHT22;14235;48.532;8.722;2023-08-20T04:57:54;19.10;99.90
26589;DHT22;14235;48.532;8.722;2023-08-20T05:00:20;19.00;99.90
26589;DHT22;14235;48.532;8.722;2023-08-20T05:02:46;19.10;99.90
26589;DHT22;14235;48.532;8.722;2023-08-20T05:05:12;19.10;99.90
26589;DHT22;14235;48.532;8.722;2023-08-20T05:07:37;19.20;99.90
26589;DHT22;14235;48.532;8.722;2023-08-20T05:10:04;19.20;99.90
26589;DHT22;14235;48.532;8.722;2023-08-20T05:12:29;19.10;99.90
26589;DHT22;14235;48.532;8.722;2023-08-20T05:14:55;19.20;99.90
26589;DHT22;14235;48.532;8.722;2023-08-20T05:17:21;19.10;99.90
26589;DHT22;14235;48.532;8.722;2023-08-20T05:19:47;19.10;99.90
26589;DHT22;14235;48.532;8.722;2023-08-20T05:22:13;19.10;99.90
26589;DHT22;14235;48.532;8.722;2023-08-20T05:24:38;19.10;99.90
26589;DHT22;14235;48.532;8.722;2023-08-20T05:27:15;19.10;99.90
26589;DHT22;14235;48.532;8.722;2023-08-20T05:29:42;19.20;99.90
26589;DHT22;14235;48.532;8.722;2023-08-20T05:32:08;19.20;99.90
26589;DHT22;14235;48.532;8.722;2023-08-20T05:34:34;19.20;99.90
26589;DHT22;14235;48.532;8.722;2023-08-20T05:37:00;19.10;99.90
26589;DHT22;14235;48.532;8.722;2023-08-20T05:39:27;19.10;99.90
26589;DHT22;14235;48.532;8.722;2023-08-20T05:41:53;19.20;99.90
26589;DHT22;14235;48.532;8.722;2023-08-20T05:44:20;19.20;99.90
26589;DHT22;14235;48.532;8.722;2023-08-20T05:46:45;19.40;99.90
26589;DHT22;14235;48.532;8.722;2023-08-20T05:49:13;19.40;99.90
26589;DHT22;14235;48.532;8.722;2023-08-20T05:51:43;19.50;99.90
26589;DHT22;14235;48.532;8.722;2023-08-20T05:54:09;19.40;99.90
26589;DHT22;14235;48.532;8.722;2023-08-20T05:56:34;19.60;99.90
26589;DHT22;14235;48.532;8.722;2023-08-20T05:59:00;19.70;99.90
26589;DHT22;14235;48.532;8.722;2023-08-20T06:01:26;19.80;99.90
26589;DHT22;14235;48.532;8.722;2023-08-20T06:03:51;19.80;99.90
26589;DHT22;14235;48.532;8.722;2023-08-20T06:06:21;19.90;99.90
26589;DHT22;14235;48.532;8.722;2023-08-20T06:08:47;20.00;99.90
26589;DHT22;14235;48.532;8.722;2023-08-20T06:11:13;20.10;99.90
26589;DHT22;14235;48.532;8.722;2023-08-20T06:13:39;20.10;99.90
26589;DHT22;14235;48.532;8.722;2023-08-20T06:16:04;20.20;99.90
26589;DHT22;14235;48.532;8.722;2023-08-20T06:18:30;20.30;99.90
26589;DHT22;14235;48.532;8.722;2023-08-20T06:20:56;20.40;99.90
26589;DHT22;14235;48.532;8.722;2023-08-20T06:23:22;20.40;99.90
26589;DHT22;14235;48.532;8.722;2023-08-20T06:25:47;20.40;99.90
26589;DHT22;14235;48.532;8.722;2023-08-20T06:28:15;20.50;99.90
26589;DHT22;14235;48.532;8.722;2023-08-20T06:30:41;20.40;99.90
26589;DHT22;14235;48.532;8.722;2023-08-20T06:33:06;20.50;99.90
26589;DHT22;14235;48.532;8.722;2023-08-20T06:35:32;20.50;99.90
26589;DHT22;14235;48.532;8.722;2023-08-20T06:37:59;20.50;99.90
26589;DHT22;14235;48.532;8.722;2023-08-20T06:40:25;20.70;99.90
26589;DHT22;14235;48.532;8.722;2023-08-20T06:42:51;20.70;99.90
26589;DHT22;14235;48.532;8.722;2023-08-20T06:45:16;20.70;99.90
26589;DHT22;14235;48.532;8.722;2023-08-20T06:47:42;20.80;99.90
26589;DHT22;14235;48.532;8.722;2023-08-20T06:50:08;20.70;99.90
26589;DHT22;14235;48.532;8.722;2023-08-20T06:52:37;20.80;99.90
26589;DHT22;14235;48.532;8.722;2023-08-20T06:55:02;20.80;99.90
26589;DHT22;14235;48.532;8.722;2023-08-20T06:57:28;20.80;99.90
26589;DHT22;14235;48.532;8.722;2023-08-20T06:59:54;20.80;99.90
26589;DHT22;14235;48.532;8.722;2023-08-20T07:02:20;20.90;99.90
26589;DHT22;14235;48.532;8.722;2023-08-20T07:04:45;21.00;99.90
26589;DHT22;14235;48.532;8.722;2023-08-20T07:07:12;20.90;99.90
26589;DHT22;14235;48.532;8.722;2023-08-20T07:09:38;21.00;99.90
26589;DHT22;14235;48.532;8.722;2023-08-20T07:12:05;21.10;99.90
26589;DHT22;14235;48.532;8.722;2023-08-20T07:14:30;21.10;99.90
26589;DHT22;14235;48.532;8.722;2023-08-20T07:16:58;21.20;99.90
26589;DHT22;14235;48.532;8.722;2023-08-20T07:19:27;21.20;99.90
26589;DHT22;14235;48.532;8.722;2023-08-20T07:21:53;21.30;99.90
26589;DHT22;14235;48.532;8.722;2023-08-20T07:24:19;21.50;99.90
26589;DHT22;14235;48.532;8.722;2023-08-20T07:26:53;21.50;99.90
26589;DHT22;14235;48.532;8.722;2023-08-20T07:29:25;21.50;99.90
26589;DHT22;14235;48.532;8.722;2023-08-20T07:31:51;21.50;99.90
26589;DHT22;14235;48.532;8.722;2023-08-20T07:34:16;21.60;99.90
26589;DHT22;14235;48.532;8.722;2023-08-20T07:36:42;21.70;99.90
26589;DHT22;14235;48.532;8.722;2023-08-20T07:39:10;21.70;99.90
26589;DHT22;14235;48.532;8.722;2023-08-20T07:41:36;21.80;99.90
26589;DHT22;14235;48.532;8.722;2023-08-20T07:44:02;21.90;99.90
26589;DHT22;14235;48.532;8.722;2023-08-20T07:46:27;21.90;99.90
26589;DHT22;14235;48.532;8.722;2023-08-20T07:48:53;22.00;99.90
26589;DHT22;14235;48.532;8.722;2023-08-20T07:51:19;22.00;99.90
26589;DHT22;14235;48.532;8.722;2023-08-20T07:53:45;22.10;99.90
26589;DHT22;14235;48.532;8.722;2023-08-20T07:56:11;22.10;99.90
26589;DHT22;14235;48.532;8.722;2023-08-20T07:58:38;22.30;99.90
26589;DHT22;14235;48.532;8.722;2023-08-20T08:01:04;22.30;99.90
26589;DHT22;14235;48.532;8.722;2023-08-20T08:03:30;22.30;99.90
26589;DHT22;14235;48.532;8.722;2023-08-20T08:05:56;22.50;99.90
26589;DHT22;14235;48.532;8.722;2023-08-20T08:08:22;22.50;99.90
26589;DHT22;14235;48.532;8.722;2023-08-20T08:10:48;22.60;99.90
26589;DHT22;14235;48.532;8.722;2023-08-20T08:13:15;22.60;99.90
26589;DHT22;14235;48.532;8.722;2023-08-20T08:15:41;22.70;99.90
26589;DHT22;14235;48.532;8.722;2023-08-20T08:18:07;22.70;99.90
26589;DHT22;14235;48.532;8.722;2023-08-20T08:20:34;22.80;99.90
26589;DHT22;14235;48.532;8.722;2023-08-20T08:23:00;22.90;99.90
26589;DHT22;14235;48.532;8.722;2023-08-20T08:25:26;22.90;99.90
26589;DHT22;14235;48.532;8.722;2023-08-20T08:27:52;23.10;99.90
26589;DHT22;14235;48.532;8.722;2023-08-20T08:30:18;23.20;99.90
26589;DHT22;14235;48.532;8.722;2023-08-20T08:32:44;23.20;99.90
26589;DHT22;14235;48.532;8.722;2023-08-20T08:35:10;23.20;99.90
26589;DHT22;14235;48.532;8.722;2023-08-20T08:37:35;23.40;99.90
26589;DHT22;14235;48.532;8.722;2023-08-20T08:40:04;23.50;99.90
26589;DHT22;14235;48.532;8.722;2023-08-20T08:42:33;23.60;99.90
26589;DHT22;14235;48.532;8.722;2023-08-20T08:45:02;23.60;99.90
26589;DHT22;14235;48.532;8.722;2023-08-20T08:47:29;23.70;99.90
26589;DHT22;14235;48.532;8.722;2023-08-20T08:49:55;23.80;99.90
26589;DHT22;14235;48.532;8.722;2023-08-20T08:52:25;23.90;99.90
26589;DHT22;14235;48.532;8.722;2023-08-20T08:54:52;23.90;99.90
26589;DHT22;14235;48.532;8.722;2023-08-20T08:57:17;24.00;99.90
26589;DHT22;14235;48.532;8.722;2023-08-20T08:59:43;24.10;99.90
26589;DHT22;14235;48.532;8.722;2023-08-20T09:02:10;24.20;99.90
26589;DHT22;14235;48.532;8.722;2023-08-20T09:04:40;24.20;99.90
26589;DHT22;14235;48.532;8.722;2023-08-20T09:07:11;24.30;99.90
26589;DHT22;14235;48.532;8.722;2023-08-20T09:09:42;24.40;99.90
26589;DHT22;14235;48.532;8.722;2023-08-20T09:12:20;24.60;99.90
26589;DHT22;14235;48.532;8.722;2023-08-20T09:17:40;24.70;99.90
26589;DHT22;14235;48.532;8.722;2023-08-20T09:20:06;24.80;99.90
26589;DHT22;14235;48.532;8.722;2023-08-20T09:22:31;24.90;99.90
26589;DHT22;14235;48.532;8.722;2023-08-20T09:24:57;25.00;99.90
26589;DHT22;14235;48.532;8.722;2023-08-20T09:27:23;25.00;99.90
26589;DHT22;14235;48.532;8.722;2023-08-20T09:29:54;25.10;99.90
26589;DHT22;14235;48.532;8.722;2023-08-20T09:32:25;25.20;99.90
26589;DHT22;14235;48.532;8.722;2023-08-20T09:34:52;25.20;99.90
26589;DHT22;14235;48.532;8.722;2023-08-20T09:37:22;25.30;99.90
26589;DHT22;14235;48.532;8.722;2023-08-20T09:39:48;25.40;99.90
26589;DHT22;14235;48.532;8.722;2023-08-20T09:42:15;25.50;99.90
26589;DHT22;14235;48.532;8.722;2023-08-20T09:44:45;25.60;99.90
26589;DHT22;14235;48.532;8.722;2023-08-20T09:47:12;25.60;99.90
26589;DHT22;14235;48.532;8.722;2023-08-20T09:49:40;25.70;99.90
26589;DHT22;14235;48.532;8.722;2023-08-20T09:52:08;25.70;99.90
26589;DHT22;14235;48.532;8.722;2023-08-20T09:54:58;25.80;99.90
26589;DHT22;14235;48.532;8.722;2023-08-20T10:00:00;26.00;99.90
26589;DHT22;14235;48.532;8.722;2023-08-20T10:02:28;26.10;99.90
26589;DHT22;14235;48.532;8.722;2023-08-20T10:04:54;26.20;99.90
26589;DHT22;14235;48.532;8.722;2023-08-20T10:07:20;26.20;99.90
26589;DHT22;14235;48.532;8.722;2023-08-20T10:09:49;26.40;99.90
26589;DHT22;14235;48.532;8.722;2023-08-20T10:14:42;26.50;99.90
26589;DHT22;14235;48.532;8.722;2023-08-20T10:17:08;26.60;99.90
26589;DHT22;14235;48.532;8.722;2023-08-20T10:19:36;26.70;99.90
26589;DHT22;14235;48.532;8.722;2023-08-20T10:22:03;26.80;99.90
26589;DHT22;14235;48.532;8.722;2023-08-20T10:24:40;26.80;99.90
26589;DHT22;14235;48.532;8.722;2023-08-20T10:27:12;26.90;99.90
26589;DHT22;14235;48.532;8.722;2023-08-20T10:29:41;27.00;99.90
26589;DHT22;14235;48.532;8.722;2023-08-20T10:32:11;27.10;99.90
26589;DHT22;14235;48.532;8.722;2023-08-20T10:34:39;27.10;99.90
26589;DHT22;14235;48.532;8.722;2023-08-20T10:37:14;27.20;99.90
26589;DHT22;14235;48.532;8.722;2023-08-20T10:39:40;27.30;99.90
26589;DHT22;14235;48.532;8.722;2023-08-20T10:42:22;27.40;99.90
26589;DHT22;14235;48.532;8.722;2023-08-20T10:45:07;27.50;99.90
26589;DHT22;14235;48.532;8.722;2023-08-20T10:50:10;27.60;99.90
26589;DHT22;14235;48.532;8.722;2023-08-20T10:52:41;27.70;99.90
26589;DHT22;14235;48.532;8.722;2023-08-20T10:55:09;27.80;99.90
26589;DHT22;14235;48.532;8.722;2023-08-20T10:57:36;27.90;99.90
26589;DHT22;14235;48.532;8.722;2023-08-20T11:00:05;27.80;99.90
26589;DHT22;14235;48.532;8.722;2023-08-20T11:02:38;27.90;99.90
26589;DHT22;14235;48.532;8.722;2023-08-20T11:05:09;28.00;99.90
26589;DHT22;14235;48.532;8.722;2023-08-20T11:07:41;28.00;99.90
26589;DHT22;14235;48.532;8.722;2023-08-20T11:10:07;28.10;99.90
26589;DHT22;14235;48.532;8.722;2023-08-20T11:12:33;28.20;99.90
26589;DHT22;14235;48.532;8.722;2023-08-20T11:17:28;28.30;99.90
26589;DHT22;14235;48.532;8.722;2023-08-20T11:19:54;28.30;99.90
26589;DHT22;14235;48.532;8.722;2023-08-20T11:22:20;28.50;99.90
26589;DHT22;14235;48.532;8.722;2023-08-20T11:24:45;28.50;99.90
26589;DHT22;14235;48.532;8.722;2023-08-20T11:27:11;28.60;99.90
26589;DHT22;14235;48.532;8.722;2023-08-20T11:29:39;28.50;99.90
26589;DHT22;14235;48.532;8.722;2023-08-20T11:32:07;28.70;99.90
26589;DHT22;14235;48.532;8.722;2023-08-20T11:34:33;28.90;99.90
26589;DHT22;14235;48.532;8.722;2023-08-20T11:36:59;28.90;99.90
26589;DHT22;14235;48.532;8.722;2023-08-20T11:39:24;28.90;99.90
26589;DHT22;14235;48.532;8.722;2023-08-20T11:41:50;29.00;99.90
26589;DHT22;14235;48.532;8.722;2023-08-20T11:44:22;29.00;99.90
26589;DHT22;14235;48.532;8.722;2023-08-20T11:46:48;29.20;99.90
26589;DHT22;14235;48.532;8.722;2023-08-20T11:49:15;29.30;99.90
26589;DHT22;14235;48.532;8.722;2023-08-20T11:51:47;29.40;99.90
26589;DHT22;14235;48.532;8.722;2023-08-20T11:54:17;29.50;99.90
26589;DHT22;14235;48.532;8.722;2023-08-20T11:56:48;29.60;99.90
26589;DHT22;14235;48.532;8.722;2023-08-20T11:59:14;29.70;99.90
26589;DHT22;14235;48.532;8.722;2023-08-20T12:04:07;29.90;99.90
26589;DHT22;14235;48.532;8.722;2023-08-20T12:06:35;30.00;99.90
26589;DHT22;14235;48.532;8.722;2023-08-20T12:09:01;30.10;99.90
26589;DHT22;14235;48.532;8.722;2023-08-20T12:11:30;30.20;99.90
26589;DHT22;14235;48.532;8.722;2023-08-20T12:13:56;30.20;99.90
26589;DHT22;14235;48.532;8.722;2023-08-20T12:16:22;30.30;99.90
26589;DHT22;14235;48.532;8.722;2023-08-20T12:18:50;30.30;99.90
26589;DHT22;14235;48.532;8.722;2023-08-20T12:21:16;30.40;99.90
26589;DHT22;14235;48.532;8.722;2023-08-20T12:23:41;30.50;99.90
26589;DHT22;14235;48.532;8.722;2023-08-20T12:26:07;30.50;99.90
26589;DHT22;14235;48.532;8.722;2023-08-20T12:28:36;30.60;99.90
26589;DHT22;14235;48.532;8.722;2023-08-20T12:31:01;30.70;99.90
26589;DHT22;14235;48.532;8.722;2023-08-20T12:33:28;30.80;99.90
26589;DHT22;14235;48.532;8.722;2023-08-20T12:35:55;30.90;99.90
26589;DHT22;14235;48.532;8.722;2023-08-20T12:38:20;31.00;99.90
26589;DHT22;14235;48.532;8.722;2023-08-20T12:40:46;31.10;99.90
26589;DHT22;14235;48.532;8.722;2023-08-20T12:43:12;31.10;99.90
26589;DHT22;14235;48.532;8.722;2023-08-20T12:45:37;31.20;99.90
26589;DHT22;14235;48.532;8.722;2023-08-20T12:48:04;31.20;99.90
26589;DHT22;14235;48.532;8.722;2023-08-20T12:50:30;31.40;99.90
26589;DHT22;14235;48.532;8.722;2023-08-20T12:55:22;31.30;99.90
26589;DHT22;14235;48.532;8.722;2023-08-20T12:57:56;31.40;99.90
26589;DHT22;14235;48.532;8.722;2023-08-20T13:00:22;31.50;99.80
26589;DHT22;14235;48.532;8.722;2023-08-20T13:02:50;31.60;99.90
26589;DHT22;14235;48.532;8.722;2023-08-20T13:05:16;31.70;99.90
26589;DHT22;14235;48.532;8.722;2023-08-20T13:07:42;31.70;89.40
26589;DHT22;14235;48.532;8.722;2023-08-20T13:10:08;31.90;89.40
26589;DHT22;14235;48.532;8.722;2023-08-20T13:12:34;32.00;88.20
26589;DHT22;14235;48.532;8.722;2023-08-20T13:15:00;32.10;86.10
26589;DHT22;14235;48.532;8.722;2023-08-20T13:17:27;32.20;83.10
26589;DHT22;14235;48.532;8.722;2023-08-20T13:19:52;32.30;81.30
26589;DHT22;14235;48.532;8.722;2023-08-20T13:22:18;32.50;83.30
26589;DHT22;14235;48.532;8.722;2023-08-20T13:24:44;32.50;82.30
26589;DHT22;14235;48.532;8.722;2023-08-20T13:27:09;32.70;82.80
26589;DHT22;14235;48.532;8.722;2023-08-20T13:29:35;32.70;82.70
26589;DHT22;14235;48.532;8.722;2023-08-20T13:32:00;32.80;83.00
26589;DHT22;14235;48.532;8.722;2023-08-20T13:34:26;32.90;83.50
26589;DHT22;14235;48.532;8.722;2023-08-20T13:36:52;33.00;83.70
26589;DHT22;14235;48.532;8.722;2023-08-20T13:39:18;33.10;80.40
26589;DHT22;14235;48.532;8.722;2023-08-20T13:41:44;33.20;80.80
26589;DHT22;14235;48.532;8.722;2023-08-20T13:44:09;33.40;77.30
26589;DHT22;14235;48.532;8.722;2023-08-20T13:46:35;33.50;75.20
26589;DHT22;14235;48.532;8.722;2023-08-20T13:49:01;33.50;76.70
26589;DHT22;14235;48.532;8.722;2023-08-20T13:51:28;33.60;75.80
26589;DHT22;14235;48.532;8.722;2023-08-20T13:53:54;33.80;77.00
26589;DHT22;14235;48.532;8.722;2023-08-20T14:42:37;34.10;77.20
26589;DHT22;14235;48.532;8.722;2023-08-20T14:45:03;35.80;67.70
26589;DHT22;14235;48.532;8.722;2023-08-20T14:47:30;35.30;69.00
26589;DHT22;14235;48.532;8.722;2023-08-20T14:49:56;34.90;69.80
26589;DHT22;14235;48.532;8.722;2023-08-20T14:52:22;34.60;70.70
26589;DHT22;14235;48.532;8.722;2023-08-20T14:54:47;34.50;73.00
26589;DHT22;14235;48.532;8.722;2023-08-20T14:57:13;34.30;74.20
26589;DHT22;14235;48.532;8.722;2023-08-20T14:59:40;34.30;73.20
26589;DHT22;14235;48.532;8.722;2023-08-20T15:02:06;34.80;73.40
26589;DHT22;14235;48.532;8.722;2023-08-20T15:04:31;35.40;72.30
26589;DHT22;14235;48.532;8.722;2023-08-20T15:06:57;36.00;68.70
26589;DHT22;14235;48.532;8.722;2023-08-20T15:09:22;36.80;66.50
26589;DHT22;14235;48.532;8.722;2023-08-20T15:11:48;37.00;63.70
26589;DHT22;14235;48.532;8.722;2023-08-20T15:14:14;37.30;64.60
26589;DHT22;14235;48.532;8.722;2023-08-20T15:23:57;38.20;58.40
26589;DHT22;14235;48.532;8.722;2023-08-20T15:26:24;38.50;57.80
26589;DHT22;14235;48.532;8.722;2023-08-20T15:28:49;39.30;57.10
26589;DHT22;14235;48.532;8.722;2023-08-20T15:40:59;39.50;57.10
26589;DHT22;14235;48.532;8.722;2023-08-20T15:43:25;36.80;58.30
26589;DHT22;14235;48.532;8.722;2023-08-20T15:45:51;36.10;61.20
26589;DHT22;14235;48.532;8.722;2023-08-20T15:48:16;35.50;62.80
26589;DHT22;14235;48.532;8.722;2023-08-20T15:53:59;34.50;66.20
26589;DHT22;14235;48.532;8.722;2023-08-20T15:56:31;34.00;70.00
26589;DHT22;14235;48.532;8.722;2023-08-20T15:58:56;33.40;73.60
26589;DHT22;14235;48.532;8.722;2023-08-20T16:01:22;33.00;85.70
26589;DHT22;14235;48.532;8.722;2023-08-20T16:25:45;32.50;87.80
26589;DHT22;14235;48.532;8.722;2023-08-20T16:28:12;30.30;91.60
26589;DHT22;14235;48.532;8.722;2023-08-20T16:30:38;30.20;91.20
26589;DHT22;14235;48.532;8.722;2023-08-20T16:33:07;30.10;91.50
26589;DHT22;14235;48.532;8.722;2023-08-20T16:35:35;30.20;91.90
26589;DHT22;14235;48.532;8.722;2023-08-20T16:38:04;30.10;92.10
26589;DHT22;14235;48.532;8.722;2023-08-20T16:40:30;30.10;92.90
26589;DHT22;14235;48.532;8.722;2023-08-20T16:42:58;30.10;92.90
26589;DHT22;14235;48.532;8.722;2023-08-20T16:45:24;30.10;93.30
26589;DHT22;14235;48.532;8.722;2023-08-20T16:47:49;30.20;94.00
26589;DHT22;14235;48.532;8.722;2023-08-20T16:50:15;30.10;93.80
26589;DHT22;14235;48.532;8.722;2023-08-20T16:52:41;30.10;93.90
26589;DHT22;14235;48.532;8.722;2023-08-20T16:55:07;30.10;94.60
26589;DHT22;14235;48.532;8.722;2023-08-20T16:57:33;30.20;93.90
26589;DHT22;14235;48.532;8.722;2023-08-20T16:59:59;30.20;94.80
26589;DHT22;14235;48.532;8.722;2023-08-20T17:02:25;30.30;95.50
26589;DHT22;14235;48.532;8.722;2023-08-20T17:04:50;30.40;95.30
26589;DHT22;14235;48.532;8.722;2023-08-20T17:07:16;30.40;95.10
26589;DHT22;14235;48.532;8.722;2023-08-20T17:09:42;30.40;94.50
26589;DHT22;14235;48.532;8.722;2023-08-20T17:12:08;30.30;94.60
26589;DHT22;14235;48.532;8.722;2023-08-20T17:14:34;30.40;93.70
26589;DHT22;14235;48.532;8.722;2023-08-20T17:17:00;30.40;93.00
26589;DHT22;14235;48.532;8.722;2023-08-20T17:19:25;30.40;93.30
26589;DHT22;14235;48.532;8.722;2023-08-20T18:32:43;30.50;94.00
26589;DHT22;14235;48.532;8.722;2023-08-20T18:35:09;28.30;99.90
26589;DHT22;14235;48.532;8.722;2023-08-20T18:37:35;28.20;99.50
26589;DHT22;14235;48.532;8.722;2023-08-20T18:40:00;28.20;99.70
26589;DHT22;14235;48.532;8.722;2023-08-20T18:42:27;28.10;99.90
26589;DHT22;14235;48.532;8.722;2023-08-20T18:44:52;28.00;99.90
26589;DHT22;14235;48.532;8.722;2023-08-20T18:47:18;27.90;99.90